sensor_id;sensor_type;location;lat;lon;timestamp;P1;durP1;ratioP1;P2;durP2;ratioP2
38843;SDS011;24596;48.080;8.362;2022-12-24T00:00:09;6.95;;;1.13;;
38843;SDS011;24596;48.080;8.362;2022-12-24T00:02:35;9.20;;;1.70;;
38843;SDS011;24596;48.080;8.362;2022-12-24T00:05:00;5.70;;;1.20;;
38843;SDS011;24596;48.080;8.362;2022-12-24T00:07:25;5.90;;;1.35;;
38843;SDS011;24596;48.080;8.362;2022-12-24T00:09:50;4.15;;;1.20;;
38843;SDS011;24596;48.080;8.362;2022-12-24T00:12:16;6.13;;;1.38;;
38843;SDS011;24596;48.080;8.362;2022-12-24T00:14:41;7.63;;;1.35;;
38843;SDS011;24596;48.080;8.362;2022-12-24T00:17:06;5.50;;;1.20;;
38843;SDS011;24596;48.080;8.362;2022-12-24T00:19:31;4.38;;;1.60;;
38843;SDS011;24596;48.080;8.362;2022-12-24T00:21:56;5.28;;;1.58;;
38843;SDS011;24596;48.080;8.362;2022-12-24T00:24:22;7.93;;;1.50;;
38843;SDS011;24596;48.080;8.362;2022-12-24T00:26:47;7.93;;;1.50;;
38843;SDS011;24596;48.080;8.362;2022-12-24T00:29:12;9.00;;;1.20;;
38843;SDS011;24596;48.080;8.362;2022-12-24T00:31:37;7.07;;;1.10;;
38843;SDS011;24596;48.080;8.362;2022-12-24T00:34:02;3.10;;;1.05;;
38843;SDS011;24596;48.080;8.362;2022-12-24T00:36:28;4.45;;;1.40;;
38843;SDS011;24596;48.080;8.362;2022-12-24T00:38:53;7.57;;;1.27;;
38843;SDS011;24596;48.080;8.362;2022-12-24T00:41:18;3.95;;;1.20;;
38843;SDS011;24596;48.080;8.362;2022-12-24T00:43:53;4.13;;;1.30;;
38843;SDS011;24596;48.080;8.362;2022-12-24T00:46:19;4.60;;;1.10;;
38843;SDS011;24596;48.080;8.362;2022-12-24T00:48:44;3.78;;;0.98;;
38843;SDS011;24596;48.080;8.362;2022-12-24T00:51:09;7.75;;;1.50;;
38843;SDS011;24596;48.080;8.362;2022-12-24T00:53:34;6.57;;;1.58;;
38843;SDS011;24596;48.080;8.362;2022-12-24T00:56:00;6.95;;;1.10;;
38843;SDS011;24596;48.080;8.362;2022-12-24T00:58:25;4.38;;;1.20;;
38843;SDS011;24596;48.080;8.362;2022-12-24T01:00:50;3.67;;;1.15;;
38843;SDS011;24596;48.080;8.362;2022-12-24T01:03:15;6.68;;;1.42;;
38843;SDS011;24596;48.080;8.362;2022-12-24T01:05:40;7.65;;;1.45;;
38843;SDS011;24596;48.080;8.362;2022-12-24T01:08:06;7.53;;;1.63;;
38843;SDS011;24596;48.080;8.362;2022-12-24T01:10:31;5.15;;;1.40;;
38843;SDS011;24596;48.080;8.362;2022-12-24T01:12:56;13.18;;;1.85;;
38843;SDS011;24596;48.080;8.362;2022-12-24T01:15:24;6.32;;;1.33;;
38843;SDS011;24596;48.080;8.362;2022-12-24T01:17:49;5.70;;;1.25;;
38843;SDS011;24596;48.080;8.362;2022-12-24T01:20:15;7.55;;;1.50;;
38843;SDS011;24596;48.080;8.362;2022-12-24T01:22:41;7.05;;;1.02;;
38843;SDS011;24596;48.080;8.362;2022-12-24T01:25:06;9.20;;;1.48;;
38843;SDS011;24596;48.080;8.362;2022-12-24T01:27:31;11.77;;;1.88;;
38843;SDS011;24596;48.080;8.362;2022-12-24T01:30:00;6.93;;;1.20;;
38843;SDS011;24596;48.080;8.362;2022-12-24T01:32:25;6.15;;;1.30;;
38843;SDS011;24596;48.080;8.362;2022-12-24T01:34:50;9.52;;;1.25;;
38843;SDS011;24596;48.080;8.362;2022-12-24T01:37:15;10.65;;;1.58;;
38843;SDS011;24596;48.080;8.362;2022-12-24T01:39:41;9.13;;;1.60;;
38843;SDS011;24596;48.080;8.362;2022-12-24T01:42:40;9.05;;;1.63;;
38843;SDS011;24596;48.080;8.362;2022-12-24T01:45:34;8.27;;;2.47;;
38843;SDS011;24596;48.080;8.362;2022-12-24T01:48:02;5.93;;;1.45;;
38843;SDS011;24596;48.080;8.362;2022-12-24T01:50:27;7.88;;;1.63;;
38843;SDS011;24596;48.080;8.362;2022-12-24T01:52:52;10.02;;;1.90;;
38843;SDS011;24596;48.080;8.362;2022-12-24T01:55:18;6.05;;;1.30;;
38843;SDS011;24596;48.080;8.362;2022-12-24T01:57:53;11.10;;;1.77;;
38843;SDS011;24596;48.080;8.362;2022-12-24T02:00:20;9.10;;;1.70;;
38843;SDS011;24596;48.080;8.362;2022-12-24T02:02:46;8.00;;;1.52;;
38843;SDS011;24596;48.080;8.362;2022-12-24T02:08:10;8.55;;;1.75;;
38843;SDS011;24596;48.080;8.362;2022-12-24T02:10:36;7.18;;;1.73;;
38843;SDS011;24596;48.080;8.362;2022-12-24T02:13:01;8.45;;;1.50;;
38843;SDS011;24596;48.080;8.362;2022-12-24T02:15:27;8.23;;;2.08;;
38843;SDS011;24596;48.080;8.362;2022-12-24T02:17:56;7.45;;;1.70;;
38843;SDS011;24596;48.080;8.362;2022-12-24T02:23:12;8.63;;;1.85;;
38843;SDS011;24596;48.080;8.362;2022-12-24T02:25:49;9.57;;;1.98;;
38843;SDS011;24596;48.080;8.362;2022-12-24T02:29:06;6.47;;;1.70;;
38843;SDS011;24596;48.080;8.362;2022-12-24T02:31:20;10.73;;;1.70;;
38843;SDS011;24596;48.080;8.362;2022-12-24T02:33:57;8.95;;;1.50;;
38843;SDS011;24596;48.080;8.362;2022-12-24T02:36:29;7.00;;;1.60;;
38843;SDS011;24596;48.080;8.362;2022-12-24T02:39:01;6.68;;;1.80;;
38843;SDS011;24596;48.080;8.362;2022-12-24T02:41:29;8.82;;;1.60;;
38843;SDS011;24596;48.080;8.362;2022-12-24T02:44:19;5.75;;;1.55;;
38843;SDS011;24596;48.080;8.362;2022-12-24T02:46:46;7.30;;;1.55;;
38843;SDS011;24596;48.080;8.362;2022-12-24T02:49:11;11.27;;;2.28;;
38843;SDS011;24596;48.080;8.362;2022-12-24T02:51:37;6.07;;;1.63;;
38843;SDS011;24596;48.080;8.362;2022-12-24T02:54:02;8.18;;;1.60;;
38843;SDS011;24596;48.080;8.362;2022-12-24T02:59:13;10.68;;;1.98;;
38843;SDS011;24596;48.080;8.362;2022-12-24T03:10:02;5.47;;;1.38;;
38843;SDS011;24596;48.080;8.362;2022-12-24T03:12:11;6.55;;;1.67;;
38843;SDS011;24596;48.080;8.362;2022-12-24T03:14:38;10.13;;;1.90;;
38843;SDS011;24596;48.080;8.362;2022-12-24T03:17:04;9.32;;;1.85;;
38843;SDS011;24596;48.080;8.362;2022-12-24T03:19:29;3.75;;;1.15;;
38843;SDS011;24596;48.080;8.362;2022-12-24T03:21:55;8.60;;;1.65;;
38843;SDS011;24596;48.080;8.362;2022-12-24T03:24:22;8.88;;;1.70;;
38843;SDS011;24596;48.080;8.362;2022-12-24T03:26:47;5.75;;;1.48;;
38843;SDS011;24596;48.080;8.362;2022-12-24T03:29:12;9.32;;;1.60;;
38843;SDS011;24596;48.080;8.362;2022-12-24T03:31:39;9.88;;;1.35;;
38843;SDS011;24596;48.080;8.362;2022-12-24T03:34:04;6.60;;;1.45;;
38843;SDS011;24596;48.080;8.362;2022-12-24T03:36:29;8.43;;;2.08;;
38843;SDS011;24596;48.080;8.362;2022-12-24T03:38:54;7.78;;;1.55;;
38843;SDS011;24596;48.080;8.362;2022-12-24T03:41:20;7.93;;;2.08;;
38843;SDS011;24596;48.080;8.362;2022-12-24T03:43:45;10.88;;;1.60;;
38843;SDS011;24596;48.080;8.362;2022-12-24T03:46:10;8.60;;;1.70;;
38843;SDS011;24596;48.080;8.362;2022-12-24T03:48:35;7.70;;;1.58;;
38843;SDS011;24596;48.080;8.362;2022-12-24T03:51:01;10.02;;;1.92;;
38843;SDS011;24596;48.080;8.362;2022-12-24T03:53:26;6.75;;;1.70;;
38843;SDS011;24596;48.080;8.362;2022-12-24T03:55:51;8.73;;;1.65;;
38843;SDS011;24596;48.080;8.362;2022-12-24T03:58:16;7.55;;;1.98;;
38843;SDS011;24596;48.080;8.362;2022-12-24T04:00:41;11.32;;;1.63;;
38843;SDS011;24596;48.080;8.362;2022-12-24T04:03:07;9.50;;;1.70;;
38843;SDS011;24596;48.080;8.362;2022-12-24T04:05:32;10.18;;;1.90;;
38843;SDS011;24596;48.080;8.362;2022-12-24T04:07:57;8.90;;;1.70;;
38843;SDS011;24596;48.080;8.362;2022-12-24T04:10:22;8.85;;;1.52;;
38843;SDS011;24596;48.080;8.362;2022-12-24T04:12:47;9.77;;;2.03;;
38843;SDS011;24596;48.080;8.362;2022-12-24T04:15:13;9.85;;;2.05;;
38843;SDS011;24596;48.080;8.362;2022-12-24T04:17:38;11.80;;;2.10;;
38843;SDS011;24596;48.080;8.362;2022-12-24T04:20:03;10.00;;;2.08;;
38843;SDS011;24596;48.080;8.362;2022-12-24T04:22:29;10.82;;;1.90;;
38843;SDS011;24596;48.080;8.362;2022-12-24T04:24:54;11.98;;;2.20;;
38843;SDS011;24596;48.080;8.362;2022-12-24T04:27:19;13.73;;;1.90;;
38843;SDS011;24596;48.080;8.362;2022-12-24T04:29:44;11.82;;;1.60;;
38843;SDS011;24596;48.080;8.362;2022-12-24T04:32:09;8.90;;;1.88;;
38843;SDS011;24596;48.080;8.362;2022-12-24T04:34:35;13.25;;;2.13;;
38843;SDS011;24596;48.080;8.362;2022-12-24T04:37:00;12.30;;;2.10;;
38843;SDS011;24596;48.080;8.362;2022-12-24T04:39:26;8.10;;;1.45;;
38843;SDS011;24596;48.080;8.362;2022-12-24T04:41:51;9.00;;;1.88;;
38843;SDS011;24596;48.080;8.362;2022-12-24T04:44:16;14.35;;;1.88;;
38843;SDS011;24596;48.080;8.362;2022-12-24T04:46:42;12.40;;;2.38;;
38843;SDS011;24596;48.080;8.362;2022-12-24T04:49:07;10.13;;;2.03;;
38843;SDS011;24596;48.080;8.362;2022-12-24T04:51:32;9.88;;;1.85;;
38843;SDS011;24596;48.080;8.362;2022-12-24T04:53:58;11.13;;;2.00;;
38843;SDS011;24596;48.080;8.362;2022-12-24T04:56:24;11.65;;;1.98;;
38843;SDS011;24596;48.080;8.362;2022-12-24T04:58:50;9.55;;;1.67;;
38843;SDS011;24596;48.080;8.362;2022-12-24T05:01:20;14.50;;;3.60;;
38843;SDS011;24596;48.080;8.362;2022-12-24T05:03:46;15.07;;;2.22;;
38843;SDS011;24596;48.080;8.362;2022-12-24T05:06:12;11.88;;;2.08;;
38843;SDS011;24596;48.080;8.362;2022-12-24T05:08:38;9.05;;;1.98;;
38843;SDS011;24596;48.080;8.362;2022-12-24T05:11:03;7.97;;;1.52;;
38843;SDS011;24596;48.080;8.362;2022-12-24T05:13:28;9.60;;;2.40;;
38843;SDS011;24596;48.080;8.362;2022-12-24T05:15:54;13.27;;;2.13;;
38843;SDS011;24596;48.080;8.362;2022-12-24T05:18:19;11.50;;;2.00;;
38843;SDS011;24596;48.080;8.362;2022-12-24T05:20:45;13.50;;;1.67;;
38843;SDS011;24596;48.080;8.362;2022-12-24T05:23:17;10.05;;;1.70;;
38843;SDS011;24596;48.080;8.362;2022-12-24T05:26:02;15.03;;;2.23;;
38843;SDS011;24596;48.080;8.362;2022-12-24T05:28:46;11.57;;;2.42;;
38843;SDS011;24596;48.080;8.362;2022-12-24T05:31:11;11.52;;;2.30;;
38843;SDS011;24596;48.080;8.362;2022-12-24T05:33:36;12.30;;;1.85;;
38843;SDS011;24596;48.080;8.362;2022-12-24T05:36:02;8.30;;;1.73;;
38843;SDS011;24596;48.080;8.362;2022-12-24T05:38:27;11.93;;;1.92;;
38843;SDS011;24596;48.080;8.362;2022-12-24T05:40:52;13.57;;;2.22;;
38843;SDS011;24596;48.080;8.362;2022-12-24T05:43:17;15.45;;;2.53;;
38843;SDS011;24596;48.080;8.362;2022-12-24T05:45:43;13.10;;;1.95;;
38843;SDS011;24596;48.080;8.362;2022-12-24T05:48:08;13.60;;;3.35;;
38843;SDS011;24596;48.080;8.362;2022-12-24T05:50:34;12.52;;;3.00;;
38843;SDS011;24596;48.080;8.362;2022-12-24T05:52:59;10.27;;;1.90;;
38843;SDS011;24596;48.080;8.362;2022-12-24T05:55:25;11.15;;;1.95;;
38843;SDS011;24596;48.080;8.362;2022-12-24T05:57:50;10.07;;;2.10;;
38843;SDS011;24596;48.080;8.362;2022-12-24T06:00:15;14.85;;;2.35;;
38843;SDS011;24596;48.080;8.362;2022-12-24T06:02:40;10.20;;;1.88;;
38843;SDS011;24596;48.080;8.362;2022-12-24T06:05:06;13.43;;;2.08;;
38843;SDS011;24596;48.080;8.362;2022-12-24T06:07:31;14.25;;;2.78;;
38843;SDS011;24596;48.080;8.362;2022-12-24T06:09:56;12.52;;;2.47;;
38843;SDS011;24596;48.080;8.362;2022-12-24T06:12:21;15.43;;;2.22;;
38843;SDS011;24596;48.080;8.362;2022-12-24T06:14:55;13.50;;;2.40;;
38843;SDS011;24596;48.080;8.362;2022-12-24T06:17:30;10.50;;;2.00;;
38843;SDS011;24596;48.080;8.362;2022-12-24T06:19:55;15.50;;;2.30;;
38843;SDS011;24596;48.080;8.362;2022-12-24T06:22:20;13.88;;;2.30;;
38843;SDS011;24596;48.080;8.362;2022-12-24T06:24:45;15.90;;;3.33;;
38843;SDS011;24596;48.080;8.362;2022-12-24T06:27:10;12.73;;;2.08;;
38843;SDS011;24596;48.080;8.362;2022-12-24T06:29:36;12.13;;;1.95;;
38843;SDS011;24596;48.080;8.362;2022-12-24T06:32:01;10.93;;;1.80;;
38843;SDS011;24596;48.080;8.362;2022-12-24T06:34:26;10.57;;;1.85;;
38843;SDS011;24596;48.080;8.362;2022-12-24T06:36:51;12.32;;;2.28;;
38843;SDS011;24596;48.080;8.362;2022-12-24T06:39:16;15.73;;;2.58;;
38843;SDS011;24596;48.080;8.362;2022-12-24T06:41:42;10.82;;;2.10;;
38843;SDS011;24596;48.080;8.362;2022-12-24T06:44:07;17.08;;;2.28;;
38843;SDS011;24596;48.080;8.362;2022-12-24T06:46:32;10.60;;;2.00;;
38843;SDS011;24596;48.080;8.362;2022-12-24T06:48:58;10.93;;;2.03;;
38843;SDS011;24596;48.080;8.362;2022-12-24T06:51:23;13.82;;;2.40;;
38843;SDS011;24596;48.080;8.362;2022-12-24T06:53:48;15.30;;;2.20;;
38843;SDS011;24596;48.080;8.362;2022-12-24T06:56:17;10.43;;;1.92;;
38843;SDS011;24596;48.080;8.362;2022-12-24T06:58:43;15.68;;;2.63;;
38843;SDS011;24596;48.080;8.362;2022-12-24T07:01:09;16.17;;;2.90;;
38843;SDS011;24596;48.080;8.362;2022-12-24T07:03:35;15.02;;;2.50;;
38843;SDS011;24596;48.080;8.362;2022-12-24T07:06:00;14.73;;;2.45;;
38843;SDS011;24596;48.080;8.362;2022-12-24T07:08:26;11.50;;;2.40;;
38843;SDS011;24596;48.080;8.362;2022-12-24T07:10:51;14.77;;;2.72;;
38843;SDS011;24596;48.080;8.362;2022-12-24T07:13:17;9.13;;;2.25;;
38843;SDS011;24596;48.080;8.362;2022-12-24T07:15:42;13.60;;;2.67;;
38843;SDS011;24596;48.080;8.362;2022-12-24T07:18:08;9.00;;;1.75;;
38843;SDS011;24596;48.080;8.362;2022-12-24T07:20:33;14.73;;;2.38;;
38843;SDS011;24596;48.080;8.362;2022-12-24T07:22:58;12.27;;;2.40;;
38843;SDS011;24596;48.080;8.362;2022-12-24T07:25:23;12.02;;;2.63;;
38843;SDS011;24596;48.080;8.362;2022-12-24T07:27:49;10.43;;;2.15;;
38843;SDS011;24596;48.080;8.362;2022-12-24T07:30:14;11.77;;;2.20;;
38843;SDS011;24596;48.080;8.362;2022-12-24T07:32:39;12.73;;;2.60;;
38843;SDS011;24596;48.080;8.362;2022-12-24T07:35:05;17.52;;;3.03;;
38843;SDS011;24596;48.080;8.362;2022-12-24T07:37:30;15.15;;;2.47;;
38843;SDS011;24596;48.080;8.362;2022-12-24T07:39:55;13.13;;;2.10;;
38843;SDS011;24596;48.080;8.362;2022-12-24T07:42:20;8.82;;;2.92;;
38843;SDS011;24596;48.080;8.362;2022-12-24T07:44:46;10.55;;;2.58;;
38843;SDS011;24596;48.080;8.362;2022-12-24T07:47:11;9.25;;;2.00;;
38843;SDS011;24596;48.080;8.362;2022-12-24T07:49:36;15.02;;;2.00;;
38843;SDS011;24596;48.080;8.362;2022-12-24T07:52:02;13.63;;;2.05;;
38843;SDS011;24596;48.080;8.362;2022-12-24T07:54:27;13.70;;;2.03;;
38843;SDS011;24596;48.080;8.362;2022-12-24T07:56:53;9.95;;;2.35;;
38843;SDS011;24596;48.080;8.362;2022-12-24T07:59:18;12.77;;;2.05;;
38843;SDS011;24596;48.080;8.362;2022-12-24T08:01:44;13.02;;;2.53;;
38843;SDS011;24596;48.080;8.362;2022-12-24T08:04:09;13.43;;;2.97;;
38843;SDS011;24596;48.080;8.362;2022-12-24T08:06:34;16.45;;;2.30;;
38843;SDS011;24596;48.080;8.362;2022-12-24T08:09:00;13.10;;;2.38;;
38843;SDS011;24596;48.080;8.362;2022-12-24T08:11:25;13.85;;;2.50;;
38843;SDS011;24596;48.080;8.362;2022-12-24T08:13:50;17.13;;;3.33;;
38843;SDS011;24596;48.080;8.362;2022-12-24T08:16:15;13.93;;;3.38;;
38843;SDS011;24596;48.080;8.362;2022-12-24T08:18:40;17.10;;;3.30;;
38843;SDS011;24596;48.080;8.362;2022-12-24T08:21:06;18.40;;;3.78;;
38843;SDS011;24596;48.080;8.362;2022-12-24T08:23:32;13.80;;;2.30;;
38843;SDS011;24596;48.080;8.362;2022-12-24T08:25:57;17.33;;;2.88;;
38843;SDS011;24596;48.080;8.362;2022-12-24T08:28:22;16.10;;;2.92;;
38843;SDS011;24596;48.080;8.362;2022-12-24T08:30:48;12.57;;;3.08;;
38843;SDS011;24596;48.080;8.362;2022-12-24T08:33:14;11.25;;;2.65;;
38843;SDS011;24596;48.080;8.362;2022-12-24T08:35:39;11.93;;;2.75;;
38843;SDS011;24596;48.080;8.362;2022-12-24T08:38:04;13.77;;;2.53;;
38843;SDS011;24596;48.080;8.362;2022-12-24T08:40:29;18.88;;;3.03;;
38843;SDS011;24596;48.080;8.362;2022-12-24T08:42:55;12.90;;;3.28;;
38843;SDS011;24596;48.080;8.362;2022-12-24T08:45:20;20.60;;;4.47;;
38843;SDS011;24596;48.080;8.362;2022-12-24T08:47:45;13.18;;;2.97;;
38843;SDS011;24596;48.080;8.362;2022-12-24T08:50:10;12.75;;;2.70;;
38843;SDS011;24596;48.080;8.362;2022-12-24T08:52:36;15.52;;;2.70;;
38843;SDS011;24596;48.080;8.362;2022-12-24T08:55:01;11.68;;;2.75;;
38843;SDS011;24596;48.080;8.362;2022-12-24T08:57:34;11.30;;;2.25;;
38843;SDS011;24596;48.080;8.362;2022-12-24T08:59:59;9.85;;;2.78;;
38843;SDS011;24596;48.080;8.362;2022-12-24T09:02:24;14.57;;;2.55;;
38843;SDS011;24596;48.080;8.362;2022-12-24T09:04:49;12.02;;;2.88;;
38843;SDS011;24596;48.080;8.362;2022-12-24T09:07:15;13.80;;;2.83;;
38843;SDS011;24596;48.080;8.362;2022-12-24T09:09:40;13.77;;;2.63;;
38843;SDS011;24596;48.080;8.362;2022-12-24T09:12:05;14.57;;;2.63;;
38843;SDS011;24596;48.080;8.362;2022-12-24T09:14:31;11.70;;;2.35;;
38843;SDS011;24596;48.080;8.362;2022-12-24T09:16:56;10.80;;;2.47;;
38843;SDS011;24596;48.080;8.362;2022-12-24T09:19:21;10.70;;;2.50;;
38843;SDS011;24596;48.080;8.362;2022-12-24T09:21:46;15.25;;;1.95;;
38843;SDS011;24596;48.080;8.362;2022-12-24T09:24:12;11.65;;;1.85;;
38843;SDS011;24596;48.080;8.362;2022-12-24T09:26:39;15.70;;;2.88;;
38843;SDS011;24596;48.080;8.362;2022-12-24T09:29:05;9.75;;;2.35;;
38843;SDS011;24596;48.080;8.362;2022-12-24T09:31:30;10.07;;;2.20;;
38843;SDS011;24596;48.080;8.362;2022-12-24T09:33:55;9.15;;;2.03;;
38843;SDS011;24596;48.080;8.362;2022-12-24T09:36:21;9.02;;;2.22;;
38843;SDS011;24596;48.080;8.362;2022-12-24T09:38:46;12.20;;;2.03;;
38843;SDS011;24596;48.080;8.362;2022-12-24T09:43:43;7.90;;;1.90;;
38843;SDS011;24596;48.080;8.362;2022-12-24T09:46:24;16.48;;;2.38;;
38843;SDS011;24596;48.080;8.362;2022-12-24T09:48:52;13.48;;;2.13;;
38843;SDS011;24596;48.080;8.362;2022-12-24T09:51:40;13.90;;;2.10;;
38843;SDS011;24596;48.080;8.362;2022-12-24T09:56:33;10.10;;;1.75;;
38843;SDS011;24596;48.080;8.362;2022-12-24T09:59:02;11.18;;;2.72;;
38843;SDS011;24596;48.080;8.362;2022-12-24T10:01:31;16.20;;;2.13;;
38843;SDS011;24596;48.080;8.362;2022-12-24T10:04:08;11.57;;;2.03;;
38843;SDS011;24596;48.080;8.362;2022-12-24T10:06:39;10.85;;;2.30;;
38843;SDS011;24596;48.080;8.362;2022-12-24T10:09:10;16.42;;;2.58;;
38843;SDS011;24596;48.080;8.362;2022-12-24T10:11:42;17.80;;;2.90;;
38843;SDS011;24596;48.080;8.362;2022-12-24T10:14:53;16.70;;;2.40;;
38843;SDS011;24596;48.080;8.362;2022-12-24T10:17:17;14.25;;;2.38;;
38843;SDS011;24596;48.080;8.362;2022-12-24T10:22:16;11.80;;;2.53;;
38843;SDS011;24596;48.080;8.362;2022-12-24T10:24:55;10.48;;;2.30;;
38843;SDS011;24596;48.080;8.362;2022-12-24T10:27:24;17.35;;;2.50;;
38843;SDS011;24596;48.080;8.362;2022-12-24T10:29:55;17.27;;;2.45;;
38843;SDS011;24596;48.080;8.362;2022-12-24T10:32:28;12.57;;;2.35;;
38843;SDS011;24596;48.080;8.362;2022-12-24T10:37:23;12.30;;;2.10;;
38843;SDS011;24596;48.080;8.362;2022-12-24T10:39:50;12.93;;;2.25;;
38843;SDS011;24596;48.080;8.362;2022-12-24T10:42:15;7.95;;;2.05;;
38843;SDS011;24596;48.080;8.362;2022-12-24T10:44:41;17.52;;;3.60;;
38843;SDS011;24596;48.080;8.362;2022-12-24T10:47:07;9.20;;;2.67;;
38843;SDS011;24596;48.080;8.362;2022-12-24T10:49:45;20.42;;;4.15;;
38843;SDS011;24596;48.080;8.362;2022-12-24T10:52:11;13.85;;;3.28;;
38843;SDS011;24596;48.080;8.362;2022-12-24T10:54:39;12.30;;;2.50;;
38843;SDS011;24596;48.080;8.362;2022-12-24T10:57:24;14.48;;;3.35;;
38843;SDS011;24596;48.080;8.362;2022-12-24T10:59:51;20.13;;;7.43;;
38843;SDS011;24596;48.080;8.362;2022-12-24T11:02:31;13.15;;;3.80;;
38843;SDS011;24596;48.080;8.362;2022-12-24T11:04:56;13.38;;;2.83;;
38843;SDS011;24596;48.080;8.362;2022-12-24T11:07:24;12.73;;;2.20;;
38843;SDS011;24596;48.080;8.362;2022-12-24T11:09:56;11.93;;;2.58;;
38843;SDS011;24596;48.080;8.362;2022-12-24T11:15:15;11.25;;;1.80;;
38843;SDS011;24596;48.080;8.362;2022-12-24T11:17:42;18.70;;;2.70;;
38843;SDS011;24596;48.080;8.362;2022-12-24T11:20:16;9.50;;;2.33;;
38843;SDS011;24596;48.080;8.362;2022-12-24T11:22:41;12.93;;;2.20;;
38843;SDS011;24596;48.080;8.362;2022-12-24T11:25:18;12.25;;;2.28;;
38843;SDS011;24596;48.080;8.362;2022-12-24T11:27:44;10.43;;;2.08;;
38843;SDS011;24596;48.080;8.362;2022-12-24T11:32:38;12.70;;;2.50;;
38843;SDS011;24596;48.080;8.362;2022-12-24T11:35:08;10.82;;;2.28;;
38843;SDS011;24596;48.080;8.362;2022-12-24T11:37:39;10.27;;;2.58;;
38843;SDS011;24596;48.080;8.362;2022-12-24T11:40:04;10.23;;;1.92;;
38843;SDS011;24596;48.080;8.362;2022-12-24T11:42:31;14.15;;;2.35;;
38843;SDS011;24596;48.080;8.362;2022-12-24T11:44:57;9.90;;;2.17;;
38843;SDS011;24596;48.080;8.362;2022-12-24T11:47:31;16.30;;;3.08;;
38843;SDS011;24596;48.080;8.362;2022-12-24T12:00:39;10.82;;;1.88;;
38843;SDS011;24596;48.080;8.362;2022-12-24T12:03:05;7.20;;;1.45;;
38843;SDS011;24596;48.080;8.362;2022-12-24T12:05:36;10.50;;;1.65;;
38843;SDS011;24596;48.080;8.362;2022-12-24T12:08:08;9.93;;;1.77;;
38843;SDS011;24596;48.080;8.362;2022-12-24T12:10:38;10.40;;;1.92;;
38843;SDS011;24596;48.080;8.362;2022-12-24T12:13:07;10.98;;;2.65;;
38843;SDS011;24596;48.080;8.362;2022-12-24T12:15:39;7.57;;;1.40;;
38843;SDS011;24596;48.080;8.362;2022-12-24T12:18:14;6.18;;;1.45;;
38843;SDS011;24596;48.080;8.362;2022-12-24T12:20:55;10.52;;;1.75;;
38843;SDS011;24596;48.080;8.362;2022-12-24T12:23:26;8.10;;;1.58;;
38843;SDS011;24596;48.080;8.362;2022-12-24T12:25:53;7.88;;;1.65;;
38843;SDS011;24596;48.080;8.362;2022-12-24T12:28:43;8.77;;;1.88;;
38843;SDS011;24596;48.080;8.362;2022-12-24T12:36:39;5.10;;;1.25;;
38843;SDS011;24596;48.080;8.362;2022-12-24T12:39:07;11.50;;;1.98;;
38843;SDS011;24596;48.080;8.362;2022-12-24T12:42:34;7.63;;;1.55;;
38843;SDS011;24596;48.080;8.362;2022-12-24T12:57:14;7.38;;;1.48;;
38843;SDS011;24596;48.080;8.362;2022-12-24T12:59:43;6.00;;;1.30;;
38843;SDS011;24596;48.080;8.362;2022-12-24T13:04:45;9.35;;;1.33;;
38843;SDS011;24596;48.080;8.362;2022-12-24T13:07:36;12.68;;;1.73;;
38843;SDS011;24596;48.080;8.362;2022-12-24T13:22:20;5.32;;;1.67;;
38843;SDS011;24596;48.080;8.362;2022-12-24T13:24:46;9.43;;;1.67;;
38843;SDS011;24596;48.080;8.362;2022-12-24T13:27:17;6.70;;;1.42;;
38843;SDS011;24596;48.080;8.362;2022-12-24T13:29:50;8.80;;;1.95;;
38843;SDS011;24596;48.080;8.362;2022-12-24T13:34:49;5.75;;;1.27;;
38843;SDS011;24596;48.080;8.362;2022-12-24T13:37:19;7.32;;;1.55;;
38843;SDS011;24596;48.080;8.362;2022-12-24T13:48:39;7.68;;;1.38;;
38843;SDS011;24596;48.080;8.362;2022-12-24T13:50:41;8.38;;;1.40;;
38843;SDS011;24596;48.080;8.362;2022-12-24T13:58:28;7.20;;;1.25;;
38843;SDS011;24596;48.080;8.362;2022-12-24T14:00:58;5.13;;;1.00;;
38843;SDS011;24596;48.080;8.362;2022-12-24T14:05:51;7.90;;;1.73;;
38843;SDS011;24596;48.080;8.362;2022-12-24T14:11:08;5.47;;;1.17;;
38843;SDS011;24596;48.080;8.362;2022-12-24T14:16:02;6.68;;;1.25;;
38843;SDS011;24596;48.080;8.362;2022-12-24T14:18:28;4.90;;;0.93;;
38843;SDS011;24596;48.080;8.362;2022-12-24T14:20:55;5.13;;;1.08;;
38843;SDS011;24596;48.080;8.362;2022-12-24T14:25:49;6.20;;;1.70;;
38843;SDS011;24596;48.080;8.362;2022-12-24T14:28:15;7.53;;;1.50;;
38843;SDS011;24596;48.080;8.362;2022-12-24T14:30:43;6.68;;;1.38;;
38843;SDS011;24596;48.080;8.362;2022-12-24T14:33:26;5.43;;;1.17;;
38843;SDS011;24596;48.080;8.362;2022-12-24T14:35:51;4.70;;;1.30;;
38843;SDS011;24596;48.080;8.362;2022-12-24T14:38:17;3.90;;;1.05;;
38843;SDS011;24596;48.080;8.362;2022-12-24T14:43:26;8.68;;;2.78;;
38843;SDS011;24596;48.080;8.362;2022-12-24T14:46:06;7.28;;;1.60;;
38843;SDS011;24596;48.080;8.362;2022-12-24T14:48:51;15.73;;;9.57;;
38843;SDS011;24596;48.080;8.362;2022-12-24T14:54:03;6.97;;;2.05;;
38843;SDS011;24596;48.080;8.362;2022-12-24T14:56:31;9.80;;;5.45;;
38843;SDS011;24596;48.080;8.362;2022-12-24T14:58:56;8.48;;;1.90;;
38843;SDS011;24596;48.080;8.362;2022-12-24T15:06:24;5.65;;;1.98;;
38843;SDS011;24596;48.080;8.362;2022-12-24T15:08:51;10.70;;;4.22;;
38843;SDS011;24596;48.080;8.362;2022-12-24T15:11:17;15.13;;;6.80;;
38843;SDS011;24596;48.080;8.362;2022-12-24T15:13:44;12.30;;;7.38;;
38843;SDS011;24596;48.080;8.362;2022-12-24T15:16:12;12.48;;;5.72;;
38843;SDS011;24596;48.080;8.362;2022-12-24T15:18:42;8.50;;;3.60;;
38843;SDS011;24596;48.080;8.362;2022-12-24T15:21:13;17.05;;;7.00;;
38843;SDS011;24596;48.080;8.362;2022-12-24T15:23:43;24.75;;;11.57;;
38843;SDS011;24596;48.080;8.362;2022-12-24T15:26:18;45.83;;;21.65;;
38843;SDS011;24596;48.080;8.362;2022-12-24T15:28:44;34.17;;;15.23;;
38843;SDS011;24596;48.080;8.362;2022-12-24T15:31:10;13.48;;;5.28;;
38843;SDS011;24596;48.080;8.362;2022-12-24T15:33:36;9.23;;;2.83;;
38843;SDS011;24596;48.080;8.362;2022-12-24T15:36:02;10.38;;;2.40;;
38843;SDS011;24596;48.080;8.362;2022-12-24T15:40:53;6.88;;;1.80;;
38843;SDS011;24596;48.080;8.362;2022-12-24T15:43:18;7.25;;;1.88;;
38843;SDS011;24596;48.080;8.362;2022-12-24T15:45:44;6.85;;;2.50;;
38843;SDS011;24596;48.080;8.362;2022-12-24T15:48:10;8.75;;;4.47;;
38843;SDS011;24596;48.080;8.362;2022-12-24T15:50:37;12.35;;;6.43;;
38843;SDS011;24596;48.080;8.362;2022-12-24T15:53:12;11.18;;;5.63;;
38843;SDS011;24596;48.080;8.362;2022-12-24T15:55:39;12.18;;;4.45;;
38843;SDS011;24596;48.080;8.362;2022-12-24T16:01:07;10.07;;;4.43;;
38843;SDS011;24596;48.080;8.362;2022-12-24T16:06:14;15.48;;;4.47;;
38843;SDS011;24596;48.080;8.362;2022-12-24T16:08:40;13.65;;;4.72;;
38843;SDS011;24596;48.080;8.362;2022-12-24T16:13:37;8.77;;;3.97;;
38843;SDS011;24596;48.080;8.362;2022-12-24T16:16:06;11.65;;;4.72;;
38843;SDS011;24596;48.080;8.362;2022-12-24T16:18:36;11.68;;;5.50;;
38843;SDS011;24596;48.080;8.362;2022-12-24T16:21:02;16.52;;;8.07;;
38843;SDS011;24596;48.080;8.362;2022-12-24T16:23:31;6.45;;;2.50;;
38843;SDS011;24596;48.080;8.362;2022-12-24T16:25:58;6.15;;;1.90;;
38843;SDS011;24596;48.080;8.362;2022-12-24T16:28:24;7.30;;;2.92;;
38843;SDS011;24596;48.080;8.362;2022-12-24T16:30:49;9.77;;;2.50;;
38843;SDS011;24596;48.080;8.362;2022-12-24T16:33:16;5.72;;;1.88;;
38843;SDS011;24596;48.080;8.362;2022-12-24T16:35:42;5.55;;;1.85;;
38843;SDS011;24596;48.080;8.362;2022-12-24T16:38:08;6.03;;;2.10;;
38843;SDS011;24596;48.080;8.362;2022-12-24T16:40:34;6.85;;;1.85;;
38843;SDS011;24596;48.080;8.362;2022-12-24T16:42:59;7.05;;;2.55;;
38843;SDS011;24596;48.080;8.362;2022-12-24T16:45:43;11.20;;;4.47;;